createdAt,value
2022-10-01T00:46:39.243Z,2.72
2022-10-01T00:49:11.793Z,2.80
2022-10-01T00:51:45.790Z,2.90
2022-10-01T00:54:18.228Z,2.50
2022-10-01T00:56:47.238Z,2.70
2022-10-01T00:59:17.287Z,2.80
2022-10-01T01:47:32.952Z,2.20
2022-10-01T01:50:03.802Z,3.30
2022-10-01T01:52:33.785Z,2.70
2022-10-01T01:55:08.612Z,2.42
2022-10-01T01:57:41.316Z,4.03
2022-10-01T02:45:36.936Z,3.60
2022-10-01T02:48:09.354Z,3.13
2022-10-01T02:50:48.078Z,2.70
2022-10-01T02:53:23.059Z,3.17
2022-10-01T02:55:52.903Z,2.88
2022-10-01T02:58:21.059Z,2.25
2022-10-01T03:47:41.583Z,2.35
2022-10-01T03:50:10.798Z,2.33
2022-10-01T03:52:38.888Z,2.38
2022-10-01T03:55:08.522Z,2.40
2022-10-01T03:57:36.779Z,2.17
2022-10-01T04:31:26.370Z,2.30
2022-10-01T04:33:55.945Z,2.00
2022-10-01T04:36:25.848Z,2.30
2022-10-01T04:38:58.012Z,2.60
2022-10-01T04:41:31.359Z,2.42
2022-10-01T04:44:01.105Z,2.40
2022-10-01T04:46:31.195Z,2.33
2022-10-01T04:48:59.846Z,2.28
2022-10-01T04:51:28.087Z,2.40
2022-10-01T04:53:56.505Z,1.92
2022-10-01T04:56:24.766Z,2.72
2022-10-01T04:58:52.962Z,2.50
2022-10-01T05:01:21.254Z,2.70
2022-10-01T05:03:50.818Z,2.53
2022-10-01T05:06:19.666Z,2.08
2022-10-01T05:08:49.690Z,2.10
2022-10-01T05:11:18.505Z,2.03
2022-10-01T05:13:47.221Z,2.03
2022-10-01T05:16:15.418Z,4.22
2022-10-01T05:18:43.709Z,4.22
2022-10-01T05:21:15.523Z,2.50
2022-10-01T05:23:44.008Z,3.13
2022-10-01T05:26:12.262Z,4.47
2022-10-01T05:28:43.291Z,3.85
2022-10-01T05:31:12.353Z,4.85
2022-10-01T05:33:42.284Z,3.45
2022-10-01T05:36:11.784Z,3.03
2022-10-01T05:38:39.997Z,2.95
2022-10-01T05:41:08.202Z,3.03
2022-10-01T05:43:36.920Z,4.13
2022-10-01T05:46:06.434Z,2.58
2022-10-01T05:48:37.153Z,2.65
2022-10-01T05:51:06.691Z,3.22
2022-10-01T05:53:38.457Z,2.60
2022-10-01T05:56:07.713Z,3.00
2022-10-01T05:58:36.548Z,2.55
2022-10-01T06:01:05.842Z,2.40
2022-10-01T06:03:34.732Z,2.60
2022-10-01T06:06:05.564Z,2.25
2022-10-01T06:08:37.640Z,3.38
2022-10-01T06:11:06.705Z,2.78
2022-10-01T06:13:37.579Z,2.58
2022-10-01T06:16:06.265Z,2.90
2022-10-01T06:18:35.105Z,2.47
2022-10-01T06:21:03.814Z,4.10
2022-10-01T06:23:32.700Z,2.80
2022-10-01T06:26:05.520Z,2.60
2022-10-01T06:28:34.272Z,2.38
2022-10-01T06:31:03.978Z,3.55
2022-10-01T06:33:32.346Z,2.47
2022-10-01T06:36:00.916Z,2.40
2022-10-01T06:38:29.152Z,2.60
2022-10-01T06:40:59.682Z,2.20
2022-10-01T06:43:31.246Z,2.40
2022-10-01T06:46:04.030Z,2.65
2022-10-01T06:48:35.419Z,2.25
2022-10-01T06:51:04.717Z,2.47
2022-10-01T06:53:32.759Z,3.35
2022-10-01T06:56:06.459Z,2.35
2022-10-01T06:58:37.402Z,2.40
2022-10-01T07:01:06.318Z,2.50
2022-10-01T07:03:35.822Z,2.40
2022-10-01T07:06:08.027Z,3.33
2022-10-01T07:08:36.789Z,2.30
2022-10-01T07:11:06.132Z,2.10
2022-10-01T07:13:36.431Z,2.13
2022-10-01T07:16:05.946Z,2.60
2022-10-01T07:18:34.793Z,2.20
2022-10-01T07:21:03.440Z,2.00
2022-10-01T07:23:31.684Z,2.00
2022-10-01T07:26:00.082Z,2.13
2022-10-01T07:28:28.442Z,2.10
2022-10-01T07:31:07.210Z,2.60
2022-10-01T07:33:36.450Z,2.40
2022-10-01T07:36:08.084Z,2.20
2022-10-01T07:38:37.231Z,2.35
2022-10-01T07:41:06.635Z,2.10
2022-10-01T07:43:36.544Z,2.00
2022-10-01T07:46:07.215Z,2.28
2022-10-01T07:48:36.841Z,2.00
2022-10-01T07:51:06.061Z,1.98
2022-10-01T07:53:34.730Z,2.25
2022-10-01T07:56:03.827Z,2.17
2022-10-01T07:58:32.697Z,2.15
2022-10-01T08:01:06.952Z,2.13
2022-10-01T08:03:35.576Z,2.22
2022-10-01T08:06:05.728Z,2.10
2022-10-01T08:08:34.484Z,2.22
2022-10-01T08:11:04.251Z,2.10
2022-10-01T08:13:32.947Z,28.98
2022-10-01T08:16:07.330Z,41.45
2022-10-01T08:18:37.070Z,34.45
2022-10-01T08:21:06.298Z,22.45
2022-10-01T08:23:35.331Z,11.02
2022-10-01T08:26:07.446Z,7.70
2022-10-01T08:28:36.655Z,6.55
2022-10-01T08:31:09.079Z,7.07
2022-10-01T08:33:38.358Z,5.90
2022-10-01T08:36:09.034Z,5.75
2022-10-01T08:38:40.138Z,11.13
2022-10-01T08:41:33.696Z,7.50
2022-10-01T08:44:05.023Z,8.02
2022-10-01T08:46:38.136Z,7.40
2022-10-01T08:49:17.061Z,9.32
2022-10-01T08:51:53.010Z,6.70
2022-10-01T08:54:33.885Z,6.53
2022-10-01T08:57:06.485Z,5.93
2022-10-01T08:59:41.816Z,4.40
2022-10-01T09:02:22.733Z,5.70
2022-10-01T09:05:00.309Z,5.82
2022-10-01T09:07:51.381Z,4.20
2022-10-01T09:10:45.701Z,5.45
2022-10-01T09:13:54.463Z,3.80
2022-10-01T09:16:29.831Z,4.88
2022-10-01T09:19:20.745Z,5.55
2022-10-01T09:21:57.954Z,5.00
2022-10-01T09:24:43.494Z,9.63
2022-10-01T09:27:16.352Z,4.25
2022-10-01T09:29:51.606Z,17.45
2022-10-01T09:32:24.247Z,30.98
2022-10-01T09:34:55.192Z,30.70
2022-10-01T09:37:32.603Z,28.70
2022-10-01T09:40:19.516Z,29.00
2022-10-01T09:42:48.818Z,29.17
2022-10-01T09:45:19.206Z,26.20
2022-10-01T09:47:52.085Z,26.67
2022-10-01T09:50:32.100Z,24.90
2022-10-01T09:53:02.114Z,25.10
2022-10-01T09:55:38.296Z,23.25
2022-10-01T09:58:13.045Z,22.63
2022-10-01T10:00:42.864Z,22.23
2022-10-01T10:03:11.407Z,21.30
2022-10-01T10:05:48.222Z,21.17
2022-10-01T10:08:23.598Z,20.73
2022-10-01T10:10:58.454Z,19.52
2022-10-01T10:13:36.266Z,20.55
2022-10-01T10:16:11.222Z,18.90
2022-10-01T10:18:41.047Z,19.35
2022-10-01T10:21:19.994Z,16.38
2022-10-01T10:23:51.482Z,13.75
2022-10-01T10:26:24.369Z,11.25
2022-10-01T10:28:52.921Z,13.23
2022-10-01T10:31:25.402Z,8.70
2022-10-01T10:33:57.473Z,6.57
2022-10-01T10:36:32.290Z,6.60
2022-10-01T10:39:01.280Z,5.68
2022-10-01T10:41:31.134Z,5.88
2022-10-01T10:44:03.628Z,6.25
2022-10-01T10:46:35.965Z,10.07
2022-10-01T10:49:09.283Z,6.03
2022-10-01T10:51:51.556Z,7.82
2022-10-01T10:54:24.237Z,7.63
2022-10-01T10:57:02.186Z,10.10
2022-10-01T10:59:32.994Z,15.10
2022-10-01T11:02:04.081Z,7.72
2022-10-01T11:04:41.573Z,12.23
2022-10-01T11:07:14.713Z,11.02
2022-10-01T11:10:00.472Z,10.20
2022-10-01T11:12:56.596Z,9.93
2022-10-01T11:15:44.995Z,7.18
2022-10-01T11:18:35.116Z,8.80
2022-10-01T11:21:25.018Z,9.23
2022-10-01T11:24:23.675Z,7.05
2022-10-01T11:26:59.608Z,6.50
2022-10-01T11:29:41.929Z,5.53
2022-10-01T11:32:23.508Z,6.07
2022-10-01T11:35:44.203Z,6.65
2022-10-01T11:38:41.990Z,6.80
2022-10-01T11:41:35.551Z,4.57
2022-10-01T11:44:10.349Z,5.05
2022-10-01T11:46:54.948Z,5.85
2022-10-01T11:49:54.884Z,4.40
2022-10-01T11:52:35.066Z,4.65
2022-10-01T11:55:38.441Z,5.90
2022-10-01T11:58:35.941Z,5.72
2022-10-01T12:01:23.033Z,5.20
2022-10-01T12:04:16.774Z,5.68
2022-10-01T12:06:56.095Z,5.15
2022-10-01T12:09:41.740Z,7.05
2022-10-01T12:12:17.582Z,5.10
2022-10-01T12:14:59.143Z,4.40
2022-10-01T12:17:39.303Z,4.38
2022-10-01T12:20:22.227Z,7.38
2022-10-01T12:22:53.555Z,7.13
2022-10-01T12:25:33.491Z,4.13
2022-10-01T12:28:10.878Z,4.53
2022-10-01T12:30:48.238Z,4.93
2022-10-01T12:33:43.300Z,4.13
2022-10-01T12:36:22.146Z,5.32
2022-10-01T12:39:10.320Z,3.38
2022-10-01T12:41:54.437Z,3.95
2022-10-01T12:44:41.533Z,5.18
2022-10-01T12:47:36.836Z,3.83
2022-10-01T12:50:24.208Z,3.40
2022-10-01T12:53:16.886Z,5.05
2022-10-01T12:56:05.455Z,4.50
2022-10-01T12:59:11.483Z,4.35
2022-10-01T13:02:09.036Z,4.75
2022-10-01T13:05:12.959Z,4.10
2022-10-01T13:08:15.153Z,4.03
2022-10-01T13:11:02.594Z,5.18
2022-10-01T13:13:34.965Z,4.55
2022-10-01T13:16:14.993Z,3.85
2022-10-01T13:18:58.448Z,5.53
2022-10-01T13:21:54.569Z,3.15
2022-10-01T13:24:33.853Z,3.83
2022-10-01T13:27:11.696Z,4.38
2022-10-01T13:29:55.818Z,4.05
2022-10-01T13:32:35.358Z,3.83
2022-10-01T13:35:25.073Z,4.53
2022-10-01T13:37:56.399Z,2.97
2022-10-01T13:40:30.141Z,3.45
2022-10-01T13:43:01.512Z,3.00
2022-10-01T13:45:41.445Z,3.33
2022-10-01T13:48:20.231Z,3.25
2022-10-01T13:51:03.345Z,8.13
2022-10-01T13:53:38.111Z,8.93
2022-10-01T13:56:08.592Z,6.32
2022-10-01T13:58:41.610Z,9.93
2022-10-01T14:01:31.939Z,7.53
2022-10-01T14:04:09.325Z,7.55
2022-10-01T14:06:48.490Z,7.70
2022-10-01T14:09:24.279Z,7.07
2022-10-01T14:12:16.560Z,6.90
2022-10-01T14:15:12.584Z,7.65
2022-10-01T14:17:45.216Z,8.52
2022-10-01T14:20:21.299Z,5.75
2022-10-01T14:23:11.683Z,5.72
2022-10-01T14:25:53.995Z,2.65
2022-10-01T14:28:50.914Z,8.38
2022-10-01T14:31:30.883Z,5.07
2022-10-01T14:34:30.689Z,7.03
2022-10-01T14:36:59.678Z,7.75
2022-10-01T14:39:29.449Z,4.40
2022-10-01T14:41:59.713Z,10.20
2022-10-01T14:44:31.643Z,6.75
2022-10-01T14:47:01.426Z,4.57
2022-10-01T14:49:32.315Z,6.88
2022-10-01T14:52:04.372Z,7.32
2022-10-01T14:54:44.458Z,6.47
2022-10-01T14:57:19.500Z,9.18
2022-10-01T14:59:49.301Z,4.57
2022-10-01T15:02:22.661Z,5.88
2022-10-01T15:04:56.690Z,3.45
2022-10-01T15:07:33.453Z,5.53
2022-10-01T15:10:08.651Z,5.82
2022-10-01T15:12:42.473Z,5.68
2022-10-01T15:15:23.819Z,6.18
2022-10-01T15:17:52.685Z,4.57
2022-10-01T15:20:21.354Z,5.45
2022-10-01T15:22:57.873Z,5.07
2022-10-01T15:25:32.738Z,5.75
2022-10-01T15:28:02.635Z,5.00
2022-10-01T15:30:31.057Z,7.93
2022-10-01T15:32:59.904Z,3.95
2022-10-01T15:35:29.552Z,6.28
2022-10-01T15:38:00.589Z,6.85
2022-10-01T15:40:35.426Z,5.97
2022-10-01T15:43:26.427Z,4.50
2022-10-01T15:46:32.381Z,4.90
2022-10-01T15:49:21.218Z,4.47
2022-10-01T15:52:12.752Z,4.05
2022-10-01T15:54:43.445Z,4.78
2022-10-01T15:57:19.577Z,2.83
2022-10-01T15:59:50.415Z,3.40
2022-10-01T16:02:25.476Z,4.50
2022-10-01T16:04:56.142Z,4.20
2022-10-01T16:07:30.374Z,5.40
2022-10-01T16:10:01.498Z,3.45
2022-10-01T16:12:31.269Z,2.92
2022-10-01T16:15:02.564Z,3.63
2022-10-01T16:17:35.823Z,5.18
2022-10-01T16:20:37.905Z,4.53
2022-10-01T16:23:35.777Z,5.90
2022-10-01T16:26:06.252Z,2.63
2022-10-01T16:28:36.730Z,3.35
2022-10-01T16:31:06.534Z,3.38
2022-10-01T16:33:35.643Z,2.42
2022-10-01T16:36:11.804Z,4.63
2022-10-01T16:38:41.094Z,4.43
2022-10-01T16:41:11.087Z,5.30
2022-10-01T16:43:39.610Z,5.18
2022-10-01T16:46:09.455Z,8.13
2022-10-01T16:48:38.212Z,6.20
2022-10-01T16:51:07.496Z,4.43
2022-10-01T16:53:36.096Z,6.82
2022-10-01T16:56:04.705Z,5.75
2022-10-01T16:58:32.933Z,8.45
2022-10-01T17:01:06.658Z,4.88
2022-10-01T17:03:38.650Z,4.38
2022-10-01T17:06:07.562Z,7.85
2022-10-01T17:08:36.096Z,6.35
2022-10-01T17:11:08.536Z,2.72
2022-10-01T17:13:39.365Z,6.25
2022-10-01T17:16:07.877Z,9.82
2022-10-01T17:18:39.081Z,5.85
2022-10-01T17:21:07.793Z,7.40
2022-10-01T17:23:36.839Z,28.67
2022-10-01T17:26:07.008Z,411.77
2022-10-01T17:28:35.586Z,1794.47
2022-10-01T17:31:08.749Z,1345.93
2022-10-01T17:33:39.007Z,1079.82
2022-10-01T17:36:08.974Z,1021.42
2022-10-01T17:38:37.660Z,1308.93
2022-10-01T17:41:06.849Z,1009.08
2022-10-01T17:43:39.238Z,970.17
2022-10-01T17:46:07.870Z,916.97
2022-10-01T17:48:37.462Z,847.40
2022-10-01T17:51:08.760Z,834.47
2022-10-01T17:53:42.491Z,792.55
2022-10-01T17:56:15.698Z,762.60
2022-10-01T17:58:46.142Z,780.75
2022-10-01T18:01:19.666Z,701.05
2022-10-01T18:03:54.247Z,710.63
2022-10-01T18:06:22.595Z,693.67
2022-10-01T18:08:55.474Z,615.50
2022-10-01T18:11:25.501Z,366.77
2022-10-01T18:13:54.138Z,315.75
2022-10-01T18:16:24.180Z,297.83
2022-10-01T18:19:52.457Z,255.15
2022-10-01T18:21:46.934Z,275.92
2022-10-01T18:24:17.822Z,256.98
2022-10-01T18:26:47.676Z,263.45
2022-10-01T18:29:20.050Z,244.32
2022-10-01T18:31:52.175Z,264.02
2022-10-01T18:34:27.366Z,226.88
2022-10-01T18:37:02.492Z,230.60
2022-10-01T18:39:40.110Z,208.68
2022-10-01T18:42:17.756Z,204.60
2022-10-01T18:44:52.326Z,205.27
2022-10-01T18:47:32.386Z,193.90
2022-10-01T18:50:34.475Z,185.43
2022-10-01T18:53:20.750Z,173.30
2022-10-01T18:56:29.100Z,188.15
2022-10-01T18:59:49.309Z,164.75
2022-10-01T19:02:36.701Z,172.13
2022-10-01T19:05:41.632Z,165.13
2022-10-01T19:08:26.686Z,167.82
2022-10-01T19:11:03.964Z,158.35
2022-10-01T19:13:42.573Z,136.15
2022-10-01T19:16:25.929Z,118.57
2022-10-01T19:19:11.350Z,136.77
2022-10-01T19:21:49.306Z,121.22
2022-10-01T19:24:51.988Z,106.88
2022-10-01T19:27:39.364Z,119.30
2022-10-01T19:30:10.951Z,121.38
2022-10-01T19:32:47.717Z,111.18
2022-10-01T19:35:20.935Z,90.25
2022-10-01T19:37:56.572Z,109.93
2022-10-01T19:40:32.108Z,98.05
2022-10-01T19:43:14.119Z,94.90
2022-10-01T19:45:51.557Z,85.50
2022-10-01T19:48:26.192Z,86.32
2022-10-01T19:51:04.246Z,84.25
2022-10-01T19:53:40.098Z,85.15
2022-10-01T19:56:15.085Z,80.05
2022-10-01T19:58:44.333Z,78.95
2022-10-01T20:01:21.503Z,69.57
2022-10-01T20:03:58.591Z,73.25
2022-10-01T20:06:34.051Z,68.45
2022-10-01T20:09:12.786Z,65.78
2022-10-01T20:11:49.448Z,62.10
2022-10-01T20:14:48.938Z,61.80
2022-10-01T20:17:25.312Z,62.95
2022-10-01T20:20:04.944Z,66.82
2022-10-01T20:22:42.255Z,63.38
2022-10-01T20:25:25.238Z,55.70
2022-10-01T20:28:03.520Z,58.78
2022-10-01T20:30:41.083Z,56.55
2022-10-01T20:33:24.159Z,59.92
2022-10-01T20:36:03.423Z,51.35
2022-10-01T20:38:38.001Z,55.25
2022-10-01T20:41:17.118Z,59.90
2022-10-01T20:43:52.344Z,58.47
2022-10-01T20:46:31.139Z,55.38
2022-10-01T20:49:05.061Z,54.42
2022-10-01T20:51:40.643Z,55.75
2022-10-01T20:54:16.937Z,55.42
2022-10-01T20:56:57.797Z,55.38
2022-10-01T20:59:32.127Z,52.28
2022-10-01T21:02:07.138Z,51.95
2022-10-01T21:04:41.884Z,52.58
2022-10-01T21:07:29.574Z,53.10
2022-10-01T21:10:00.665Z,48.08
2022-10-01T21:12:36.842Z,51.08
2022-10-01T21:15:14.008Z,50.10
2022-10-01T21:17:54.635Z,50.72
2022-10-01T21:20:44.367Z,49.55
2022-10-01T21:23:32.652Z,44.85
2022-10-01T21:26:15.158Z,58.63
2022-10-01T21:29:10.984Z,48.85
2022-10-01T21:31:52.867Z,42.33
2022-10-01T21:34:31.212Z,46.10
2022-10-01T21:37:05.744Z,53.60
2022-10-01T21:39:42.336Z,45.70
2022-10-01T21:42:17.888Z,46.10
2022-10-01T21:45:16.439Z,46.20
2022-10-01T21:48:12.324Z,42.95
2022-10-01T21:50:52.972Z,40.83
2022-10-01T21:53:58.779Z,39.05
2022-10-01T21:56:54.961Z,40.40
2022-10-01T21:59:56.843Z,40.80
2022-10-01T22:02:44.004Z,43.88
2022-10-01T22:05:24.656Z,39.95
2022-10-01T22:08:06.436Z,42.00
2022-10-01T22:10:39.417Z,35.90
2022-10-01T22:13:15.244Z,39.47
2022-10-01T22:15:46.063Z,33.25
2022-10-01T22:18:25.359Z,35.70
2022-10-01T22:20:55.846Z,34.17
2022-10-01T22:23:25.331Z,40.47
2022-10-01T22:26:00.275Z,33.45
2022-10-01T22:28:36.931Z,36.63
2022-10-01T22:31:10.299Z,33.35
2022-10-01T22:33:47.253Z,30.85
2022-10-01T22:36:21.556Z,32.72
2022-10-01T22:38:55.023Z,31.40
2022-10-01T22:41:30.911Z,34.25
2022-10-01T22:43:59.626Z,33.42
2022-10-01T22:46:58.824Z,35.53
2022-10-01T22:49:41.256Z,33.35
2022-10-01T22:52:26.378Z,32.63
2022-10-01T22:55:15.036Z,29.30
2022-10-01T22:58:07.481Z,34.88
2022-10-01T23:47:41.034Z,28.73
2022-10-01T23:50:23.540Z,25.40
2022-10-01T23:53:04.051Z,25.25
2022-10-01T23:56:03.532Z,21.73
2022-10-01T23:58:43.557Z,25.42
